sensor_id;sensor_type;location;lat;lon;timestamp;P1;durP1;ratioP1;P2;durP2;ratioP2
48789;SDS011;41718;51.980;5.734;2023-04-28T00:04:47;6.45;;;3.92;;
48789;SDS011;41718;51.980;5.734;2023-04-28T00:09:49;11.13;;;4.90;;
48789;SDS011;41718;51.980;5.734;2023-04-28T00:14:50;8.35;;;4.05;;
48789;SDS011;41718;51.980;5.734;2023-04-28T00:19:52;5.75;;;4.20;;
48789;SDS011;41718;51.980;5.734;2023-04-28T00:24:53;6.43;;;4.63;;
48789;SDS011;41718;51.980;5.734;2023-04-28T00:29:55;3.72;;;3.33;;
48789;SDS011;41718;51.980;5.734;2023-04-28T00:34:56;4.65;;;3.83;;
48789;SDS011;41718;51.980;5.734;2023-04-28T00:39:58;8.55;;;4.88;;
48789;SDS011;41718;51.980;5.734;2023-04-28T00:44:59;7.95;;;4.22;;
48789;SDS011;41718;51.980;5.734;2023-04-28T00:50:06;8.02;;;4.32;;
48789;SDS011;41718;51.980;5.734;2023-04-28T00:55:08;5.30;;;4.00;;
48789;SDS011;41718;51.980;5.734;2023-04-28T01:00:10;7.63;;;3.83;;
48789;SDS011;41718;51.980;5.734;2023-04-28T01:05:11;5.85;;;4.13;;
48789;SDS011;41718;51.980;5.734;2023-04-28T01:10:14;6.18;;;4.20;;
48789;SDS011;41718;51.980;5.734;2023-04-28T01:15:16;6.50;;;4.60;;
48789;SDS011;41718;51.980;5.734;2023-04-28T01:20:20;6.43;;;4.20;;
48789;SDS011;41718;51.980;5.734;2023-04-28T01:25:21;6.63;;;4.13;;
48789;SDS011;41718;51.980;5.734;2023-04-28T01:30:23;4.72;;;3.92;;
48789;SDS011;41718;51.980;5.734;2023-04-28T01:35:24;8.05;;;4.47;;
48789;SDS011;41718;51.980;5.734;2023-04-28T01:40:26;10.55;;;4.95;;
48789;SDS011;41718;51.980;5.734;2023-04-28T01:45:27;7.05;;;4.30;;
48789;SDS011;41718;51.980;5.734;2023-04-28T01:50:29;9.05;;;4.97;;
48789;SDS011;41718;51.980;5.734;2023-04-28T01:55:30;8.45;;;3.85;;
48789;SDS011;41718;51.980;5.734;2023-04-28T02:00:32;6.57;;;4.47;;
48789;SDS011;41718;51.980;5.734;2023-04-28T02:05:33;6.43;;;4.20;;
48789;SDS011;41718;51.980;5.734;2023-04-28T02:10:34;7.25;;;4.70;;
48789;SDS011;41718;51.980;5.734;2023-04-28T02:15:40;6.43;;;4.90;;
48789;SDS011;41718;51.980;5.734;2023-04-28T02:20:42;9.38;;;4.13;;
48789;SDS011;41718;51.980;5.734;2023-04-28T02:25:44;7.93;;;4.45;;
48789;SDS011;41718;51.980;5.734;2023-04-28T02:30:45;6.63;;;3.90;;
48789;SDS011;41718;51.980;5.734;2023-04-28T02:35:47;10.45;;;4.47;;
48789;SDS011;41718;51.980;5.734;2023-04-28T02:41:02;7.72;;;4.60;;
48789;SDS011;41718;51.980;5.734;2023-04-28T02:46:05;7.22;;;5.25;;
48789;SDS011;41718;51.980;5.734;2023-04-28T02:51:07;5.50;;;4.28;;
48789;SDS011;41718;51.980;5.734;2023-04-28T02:56:08;6.20;;;4.88;;
48789;SDS011;41718;51.980;5.734;2023-04-28T03:01:10;7.13;;;4.47;;
48789;SDS011;41718;51.980;5.734;2023-04-28T03:06:11;6.60;;;4.53;;
48789;SDS011;41718;51.980;5.734;2023-04-28T03:11:13;9.82;;;5.13;;
48789;SDS011;41718;51.980;5.734;2023-04-28T03:16:14;6.10;;;4.88;;
48789;SDS011;41718;51.980;5.734;2023-04-28T03:21:16;8.35;;;4.68;;
48789;SDS011;41718;51.980;5.734;2023-04-28T03:26:17;8.88;;;4.78;;
48789;SDS011;41718;51.980;5.734;2023-04-28T03:31:19;7.55;;;5.15;;
48789;SDS011;41718;51.980;5.734;2023-04-28T03:36:21;6.85;;;4.72;;
48789;SDS011;41718;51.980;5.734;2023-04-28T03:41:22;8.88;;;5.20;;
48789;SDS011;41718;51.980;5.734;2023-04-28T03:46:23;10.20;;;4.97;;
48789;SDS011;41718;51.980;5.734;2023-04-28T03:51:25;12.93;;;5.28;;
48789;SDS011;41718;51.980;5.734;2023-04-28T03:56:28;8.55;;;4.63;;
48789;SDS011;41718;51.980;5.734;2023-04-28T04:01:29;8.15;;;5.20;;
48789;SDS011;41718;51.980;5.734;2023-04-28T04:06:31;8.50;;;5.03;;
48789;SDS011;41718;51.980;5.734;2023-04-28T04:11:32;10.40;;;5.78;;
48789;SDS011;41718;51.980;5.734;2023-04-28T04:16:34;7.78;;;5.88;;
48789;SDS011;41718;51.980;5.734;2023-04-28T04:21:36;8.77;;;5.38;;
48789;SDS011;41718;51.980;5.734;2023-04-28T04:26:37;7.80;;;6.00;;
48789;SDS011;41718;51.980;5.734;2023-04-28T04:31:39;10.00;;;7.25;;
48789;SDS011;41718;51.980;5.734;2023-04-28T04:36:41;10.25;;;6.90;;
48789;SDS011;41718;51.980;5.734;2023-04-28T04:41:42;12.35;;;7.07;;
48789;SDS011;41718;51.980;5.734;2023-04-28T04:46:45;10.60;;;6.47;;
48789;SDS011;41718;51.980;5.734;2023-04-28T04:51:47;11.52;;;8.15;;
48789;SDS011;41718;51.980;5.734;2023-04-28T04:56:48;11.48;;;7.85;;
48789;SDS011;41718;51.980;5.734;2023-04-28T05:01:50;11.90;;;7.93;;
48789;SDS011;41718;51.980;5.734;2023-04-28T05:06:52;14.93;;;8.95;;
48789;SDS011;41718;51.980;5.734;2023-04-28T05:11:53;12.77;;;8.82;;
48789;SDS011;41718;51.980;5.734;2023-04-28T05:16:55;12.23;;;7.97;;
48789;SDS011;41718;51.980;5.734;2023-04-28T05:21:57;13.52;;;7.80;;
48789;SDS011;41718;51.980;5.734;2023-04-28T05:26:58;12.55;;;8.60;;
48789;SDS011;41718;51.980;5.734;2023-04-28T05:32:00;17.30;;;8.73;;
48789;SDS011;41718;51.980;5.734;2023-04-28T05:37:02;15.68;;;9.18;;
48789;SDS011;41718;51.980;5.734;2023-04-28T05:42:03;15.75;;;9.00;;
48789;SDS011;41718;51.980;5.734;2023-04-28T05:47:05;13.32;;;9.05;;
48789;SDS011;41718;51.980;5.734;2023-04-28T05:52:06;15.45;;;9.88;;
48789;SDS011;41718;51.980;5.734;2023-04-28T05:57:08;14.18;;;9.27;;
48789;SDS011;41718;51.980;5.734;2023-04-28T06:02:10;13.48;;;9.07;;
48789;SDS011;41718;51.980;5.734;2023-04-28T06:07:11;17.38;;;11.57;;
48789;SDS011;41718;51.980;5.734;2023-04-28T06:12:12;13.35;;;9.88;;
48789;SDS011;41718;51.980;5.734;2023-04-28T06:17:14;18.80;;;11.40;;
48789;SDS011;41718;51.980;5.734;2023-04-28T06:22:15;17.83;;;11.90;;
48789;SDS011;41718;51.980;5.734;2023-04-28T06:27:17;20.45;;;11.68;;
48789;SDS011;41718;51.980;5.734;2023-04-28T06:32:19;19.10;;;12.60;;
48789;SDS011;41718;51.980;5.734;2023-04-28T06:37:20;23.30;;;13.55;;
48789;SDS011;41718;51.980;5.734;2023-04-28T06:42:22;18.15;;;12.60;;
48789;SDS011;41718;51.980;5.734;2023-04-28T06:47:23;20.67;;;14.98;;
48789;SDS011;41718;51.980;5.734;2023-04-28T06:52:25;20.15;;;15.30;;
48789;SDS011;41718;51.980;5.734;2023-04-28T06:57:39;28.77;;;17.70;;
48789;SDS011;41718;51.980;5.734;2023-04-28T07:02:42;28.50;;;17.55;;
48789;SDS011;41718;51.980;5.734;2023-04-28T07:07:44;28.17;;;17.55;;
48789;SDS011;41718;51.980;5.734;2023-04-28T07:12:45;27.02;;;15.82;;
48789;SDS011;41718;51.980;5.734;2023-04-28T07:17:47;26.45;;;16.95;;
48789;SDS011;41718;51.980;5.734;2023-04-28T07:22:48;29.13;;;16.85;;
48789;SDS011;41718;51.980;5.734;2023-04-28T07:27:50;29.98;;;16.48;;
48789;SDS011;41718;51.980;5.734;2023-04-28T07:32:52;27.70;;;17.50;;
48789;SDS011;41718;51.980;5.734;2023-04-28T07:37:54;27.85;;;17.88;;
48789;SDS011;41718;51.980;5.734;2023-04-28T07:42:56;26.67;;;17.20;;
48789;SDS011;41718;51.980;5.734;2023-04-28T07:47:57;26.45;;;18.08;;
48789;SDS011;41718;51.980;5.734;2023-04-28T07:52:59;25.95;;;18.38;;
48789;SDS011;41718;51.980;5.734;2023-04-28T07:58:00;34.35;;;25.52;;
48789;SDS011;41718;51.980;5.734;2023-04-28T08:03:02;40.75;;;29.58;;
48789;SDS011;41718;51.980;5.734;2023-04-28T08:08:04;33.67;;;22.75;;
48789;SDS011;41718;51.980;5.734;2023-04-28T08:13:06;31.73;;;22.00;;
48789;SDS011;41718;51.980;5.734;2023-04-28T08:18:07;27.85;;;19.33;;
48789;SDS011;41718;51.980;5.734;2023-04-28T08:23:09;25.77;;;17.70;;
48789;SDS011;41718;51.980;5.734;2023-04-28T08:28:10;29.83;;;20.25;;
48789;SDS011;41718;51.980;5.734;2023-04-28T08:33:13;27.60;;;18.48;;
48789;SDS011;41718;51.980;5.734;2023-04-28T08:38:15;20.50;;;16.40;;
48789;SDS011;41718;51.980;5.734;2023-04-28T08:43:18;29.02;;;17.95;;
48789;SDS011;41718;51.980;5.734;2023-04-28T08:48:22;24.95;;;16.33;;
48789;SDS011;41718;51.980;5.734;2023-04-28T08:53:24;24.60;;;16.48;;
48789;SDS011;41718;51.980;5.734;2023-04-28T08:58:27;20.58;;;15.90;;
48789;SDS011;41718;51.980;5.734;2023-04-28T09:03:28;20.25;;;16.02;;
48789;SDS011;41718;51.980;5.734;2023-04-28T09:08:30;19.58;;;13.93;;
48789;SDS011;41718;51.980;5.734;2023-04-28T09:13:32;17.92;;;14.00;;
48789;SDS011;41718;51.980;5.734;2023-04-28T09:18:34;23.33;;;14.90;;
48789;SDS011;41718;51.980;5.734;2023-04-28T09:23:46;18.60;;;14.00;;
48789;SDS011;41718;51.980;5.734;2023-04-28T09:28:51;21.75;;;13.63;;
48789;SDS011;41718;51.980;5.734;2023-04-28T09:33:57;18.48;;;14.07;;
48789;SDS011;41718;51.980;5.734;2023-04-28T09:39:00;21.10;;;14.93;;
48789;SDS011;41718;51.980;5.734;2023-04-28T09:44:11;22.65;;;16.45;;
48789;SDS011;41718;51.980;5.734;2023-04-28T09:49:15;24.23;;;17.25;;
48789;SDS011;41718;51.980;5.734;2023-04-28T09:54:17;19.90;;;16.35;;
48789;SDS011;41718;51.980;5.734;2023-04-28T09:59:22;22.50;;;16.30;;
48789;SDS011;41718;51.980;5.734;2023-04-28T10:04:24;21.55;;;17.98;;
48789;SDS011;41718;51.980;5.734;2023-04-28T10:09:30;24.27;;;19.70;;
48789;SDS011;41718;51.980;5.734;2023-04-28T10:14:46;26.13;;;19.92;;
48789;SDS011;41718;51.980;5.734;2023-04-28T10:19:51;28.35;;;20.08;;
48789;SDS011;41718;51.980;5.734;2023-04-28T10:30:23;23.40;;;17.75;;
48789;SDS011;41718;51.980;5.734;2023-04-28T10:56:07;16.35;;;12.77;;
48789;SDS011;41718;51.980;5.734;2023-04-28T11:06:21;14.60;;;12.15;;
48789;SDS011;41718;51.980;5.734;2023-04-28T11:17:07;12.15;;;10.82;;
48789;SDS011;41718;51.980;5.734;2023-04-28T11:22:16;9.93;;;8.38;;
48789;SDS011;41718;51.980;5.734;2023-04-28T11:27:22;10.75;;;8.35;;
48789;SDS011;41718;51.980;5.734;2023-04-28T11:32:25;11.40;;;9.35;;
48789;SDS011;41718;51.980;5.734;2023-04-28T11:37:28;17.42;;;10.68;;
48789;SDS011;41718;51.980;5.734;2023-04-28T11:42:32;14.25;;;11.00;;
48789;SDS011;41718;51.980;5.734;2023-04-28T11:47:34;17.00;;;12.80;;
48789;SDS011;41718;51.980;5.734;2023-04-28T11:52:46;14.60;;;11.02;;
48789;SDS011;41718;51.980;5.734;2023-04-28T12:03:18;17.33;;;13.43;;
48789;SDS011;41718;51.980;5.734;2023-04-28T12:08:31;18.92;;;13.18;;
48789;SDS011;41718;51.980;5.734;2023-04-28T12:13:36;20.20;;;13.70;;
48789;SDS011;41718;51.980;5.734;2023-04-28T12:18:42;14.35;;;10.80;;
48789;SDS011;41718;51.980;5.734;2023-04-28T12:23:59;10.20;;;7.28;;
48789;SDS011;41718;51.980;5.734;2023-04-28T12:29:00;13.35;;;9.57;;
48789;SDS011;41718;51.980;5.734;2023-04-28T12:34:02;11.18;;;8.02;;
48789;SDS011;41718;51.980;5.734;2023-04-28T12:39:11;10.60;;;5.22;;
48789;SDS011;41718;51.980;5.734;2023-04-28T12:44:14;12.13;;;7.07;;
48789;SDS011;41718;51.980;5.734;2023-04-28T12:49:16;11.07;;;8.00;;
48789;SDS011;41718;51.980;5.734;2023-04-28T12:54:18;10.65;;;6.63;;
48789;SDS011;41718;51.980;5.734;2023-04-28T12:59:20;9.05;;;6.40;;
48789;SDS011;41718;51.980;5.734;2023-04-28T13:04:25;8.17;;;6.83;;
48789;SDS011;41718;51.980;5.734;2023-04-28T13:09:27;8.75;;;6.60;;
48789;SDS011;41718;51.980;5.734;2023-04-28T13:14:30;11.23;;;6.80;;
48789;SDS011;41718;51.980;5.734;2023-04-28T13:19:36;10.18;;;7.28;;
48789;SDS011;41718;51.980;5.734;2023-04-28T13:24:41;9.85;;;6.03;;
48789;SDS011;41718;51.980;5.734;2023-04-28T13:29:44;8.05;;;6.13;;
48789;SDS011;41718;51.980;5.734;2023-04-28T13:34:46;8.05;;;5.88;;
48789;SDS011;41718;51.980;5.734;2023-04-28T13:39:48;6.15;;;4.60;;
48789;SDS011;41718;51.980;5.734;2023-04-28T13:44:49;5.22;;;4.35;;
48789;SDS011;41718;51.980;5.734;2023-04-28T13:49:51;4.93;;;4.22;;
48789;SDS011;41718;51.980;5.734;2023-04-28T13:54:53;5.38;;;4.55;;
48789;SDS011;41718;51.980;5.734;2023-04-28T13:59:54;3.15;;;2.28;;
48789;SDS011;41718;51.980;5.734;2023-04-28T14:04:58;6.38;;;5.07;;
48789;SDS011;41718;51.980;5.734;2023-04-28T14:09:59;6.05;;;3.80;;
48789;SDS011;41718;51.980;5.734;2023-04-28T14:15:01;4.45;;;3.38;;
48789;SDS011;41718;51.980;5.734;2023-04-28T14:20:03;2.65;;;2.40;;
48789;SDS011;41718;51.980;5.734;2023-04-28T14:25:05;3.00;;;2.40;;
48789;SDS011;41718;51.980;5.734;2023-04-28T14:30:07;1.65;;;1.20;;
48789;SDS011;41718;51.980;5.734;2023-04-28T14:35:09;3.78;;;2.70;;
48789;SDS011;41718;51.980;5.734;2023-04-28T14:40:12;2.58;;;1.90;;
48789;SDS011;41718;51.980;5.734;2023-04-28T14:45:15;2.88;;;2.25;;
48789;SDS011;41718;51.980;5.734;2023-04-28T14:50:16;3.47;;;2.60;;
48789;SDS011;41718;51.980;5.734;2023-04-28T14:55:18;2.95;;;2.50;;
48789;SDS011;41718;51.980;5.734;2023-04-28T15:00:20;3.08;;;2.80;;
48789;SDS011;41718;51.980;5.734;2023-04-28T15:05:21;3.90;;;3.05;;
48789;SDS011;41718;51.980;5.734;2023-04-28T15:10:23;3.20;;;2.90;;
48789;SDS011;41718;51.980;5.734;2023-04-28T15:15:24;4.75;;;4.28;;
48789;SDS011;41718;51.980;5.734;2023-04-28T15:20:27;4.55;;;4.15;;
48789;SDS011;41718;51.980;5.734;2023-04-28T15:25:30;4.65;;;3.83;;
48789;SDS011;41718;51.980;5.734;2023-04-28T15:30:32;2.65;;;2.42;;
48789;SDS011;41718;51.980;5.734;2023-04-28T15:35:34;5.72;;;5.05;;
48789;SDS011;41718;51.980;5.734;2023-04-28T15:40:37;5.15;;;4.57;;
48789;SDS011;41718;51.980;5.734;2023-04-28T15:45:40;9.18;;;6.10;;
48789;SDS011;41718;51.980;5.734;2023-04-28T15:50:42;5.53;;;4.95;;
48789;SDS011;41718;51.980;5.734;2023-04-28T15:55:44;9.38;;;7.00;;
48789;SDS011;41718;51.980;5.734;2023-04-28T16:00:45;6.07;;;5.00;;
48789;SDS011;41718;51.980;5.734;2023-04-28T16:05:49;6.80;;;5.45;;
48789;SDS011;41718;51.980;5.734;2023-04-28T16:10:53;6.90;;;6.15;;
48789;SDS011;41718;51.980;5.734;2023-04-28T16:15:55;5.68;;;4.80;;
48789;SDS011;41718;51.980;5.734;2023-04-28T16:20:57;7.40;;;5.47;;
48789;SDS011;41718;51.980;5.734;2023-04-28T16:25:58;8.57;;;5.97;;
48789;SDS011;41718;51.980;5.734;2023-04-28T16:31:00;8.65;;;6.85;;
48789;SDS011;41718;51.980;5.734;2023-04-28T16:36:01;9.50;;;6.82;;
48789;SDS011;41718;51.980;5.734;2023-04-28T16:41:03;10.57;;;7.65;;
48789;SDS011;41718;51.980;5.734;2023-04-28T16:46:05;8.25;;;5.68;;
48789;SDS011;41718;51.980;5.734;2023-04-28T16:51:08;10.75;;;5.85;;
48789;SDS011;41718;51.980;5.734;2023-04-28T16:56:10;11.32;;;6.95;;
48789;SDS011;41718;51.980;5.734;2023-04-28T17:01:12;7.03;;;4.60;;
48789;SDS011;41718;51.980;5.734;2023-04-28T17:06:13;6.32;;;4.43;;
48789;SDS011;41718;51.980;5.734;2023-04-28T17:11:15;6.97;;;5.07;;
48789;SDS011;41718;51.980;5.734;2023-04-28T17:16:17;7.82;;;5.03;;
48789;SDS011;41718;51.980;5.734;2023-04-28T17:21:19;10.63;;;6.43;;
48789;SDS011;41718;51.980;5.734;2023-04-28T17:26:21;4.75;;;3.13;;
48789;SDS011;41718;51.980;5.734;2023-04-28T17:31:27;6.00;;;4.07;;
48789;SDS011;41718;51.980;5.734;2023-04-28T17:36:29;3.90;;;2.95;;
48789;SDS011;41718;51.980;5.734;2023-04-28T17:41:33;5.22;;;4.65;;
48789;SDS011;41718;51.980;5.734;2023-04-28T17:46:35;4.20;;;3.78;;
48789;SDS011;41718;51.980;5.734;2023-04-28T17:51:41;2.93;;;2.67;;
48789;SDS011;41718;51.980;5.734;2023-04-28T17:56:42;5.65;;;3.63;;
48789;SDS011;41718;51.980;5.734;2023-04-28T18:01:43;3.42;;;2.20;;
48789;SDS011;41718;51.980;5.734;2023-04-28T18:06:45;4.50;;;3.53;;
48789;SDS011;41718;51.980;5.734;2023-04-28T18:11:47;3.72;;;1.75;;
48789;SDS011;41718;51.980;5.734;2023-04-28T18:16:48;2.22;;;2.03;;
48789;SDS011;41718;51.980;5.734;2023-04-28T18:21:51;3.95;;;2.00;;
48789;SDS011;41718;51.980;5.734;2023-04-28T18:26:55;4.85;;;4.05;;
48789;SDS011;41718;51.980;5.734;2023-04-28T18:31:56;3.03;;;2.50;;
48789;SDS011;41718;51.980;5.734;2023-04-28T18:36:58;3.33;;;2.30;;
48789;SDS011;41718;51.980;5.734;2023-04-28T18:41:59;3.03;;;2.50;;
48789;SDS011;41718;51.980;5.734;2023-04-28T18:47:01;2.70;;;2.45;;
48789;SDS011;41718;51.980;5.734;2023-04-28T18:52:03;3.10;;;1.80;;
48789;SDS011;41718;51.980;5.734;2023-04-28T18:57:08;6.10;;;4.25;;
48789;SDS011;41718;51.980;5.734;2023-04-28T19:02:20;2.10;;;1.90;;
48789;SDS011;41718;51.980;5.734;2023-04-28T19:07:28;3.35;;;2.42;;
48789;SDS011;41718;51.980;5.734;2023-04-28T19:12:31;13.75;;;6.70;;
48789;SDS011;41718;51.980;5.734;2023-04-28T19:17:33;9.10;;;5.35;;
48789;SDS011;41718;51.980;5.734;2023-04-28T19:22:36;12.38;;;7.15;;
48789;SDS011;41718;51.980;5.734;2023-04-28T19:27:40;9.05;;;5.22;;
48789;SDS011;41718;51.980;5.734;2023-04-28T19:32:47;16.27;;;8.27;;
48789;SDS011;41718;51.980;5.734;2023-04-28T19:37:50;14.68;;;8.85;;
48789;SDS011;41718;51.980;5.734;2023-04-28T19:42:54;14.35;;;8.20;;
48789;SDS011;41718;51.980;5.734;2023-04-28T19:47:56;15.55;;;9.70;;
48789;SDS011;41718;51.980;5.734;2023-04-28T19:52:58;9.80;;;5.70;;
48789;SDS011;41718;51.980;5.734;2023-04-28T19:57:59;20.73;;;11.60;;
48789;SDS011;41718;51.980;5.734;2023-04-28T20:03:01;24.60;;;12.73;;
48789;SDS011;41718;51.980;5.734;2023-04-28T20:08:03;21.52;;;11.55;;
48789;SDS011;41718;51.980;5.734;2023-04-28T20:13:04;22.75;;;13.80;;
48789;SDS011;41718;51.980;5.734;2023-04-28T20:18:07;22.23;;;12.85;;
48789;SDS011;41718;51.980;5.734;2023-04-28T20:23:08;19.27;;;10.85;;
48789;SDS011;41718;51.980;5.734;2023-04-28T20:28:15;25.42;;;14.75;;
48789;SDS011;41718;51.980;5.734;2023-04-28T20:33:17;27.38;;;15.40;;
48789;SDS011;41718;51.980;5.734;2023-04-28T20:38:20;26.95;;;14.68;;
48789;SDS011;41718;51.980;5.734;2023-04-28T20:43:27;36.10;;;16.40;;
48789;SDS011;41718;51.980;5.734;2023-04-28T20:48:33;31.23;;;15.25;;
48789;SDS011;41718;51.980;5.734;2023-04-28T20:53:40;22.63;;;14.10;;
48789;SDS011;41718;51.980;5.734;2023-04-28T20:58:44;24.35;;;13.38;;
48789;SDS011;41718;51.980;5.734;2023-04-28T21:03:47;31.13;;;18.17;;
48789;SDS011;41718;51.980;5.734;2023-04-28T21:08:49;29.88;;;17.23;;
48789;SDS011;41718;51.980;5.734;2023-04-28T21:13:51;38.67;;;20.27;;
48789;SDS011;41718;51.980;5.734;2023-04-28T21:18:52;51.45;;;26.83;;
48789;SDS011;41718;51.980;5.734;2023-04-28T21:23:57;85.95;;;41.47;;
48789;SDS011;41718;51.980;5.734;2023-04-28T21:28:59;36.83;;;20.73;;
48789;SDS011;41718;51.980;5.734;2023-04-28T21:34:01;36.15;;;21.63;;
48789;SDS011;41718;51.980;5.734;2023-04-28T21:39:03;11.43;;;7.47;;
48789;SDS011;41718;51.980;5.734;2023-04-28T21:44:04;40.13;;;23.92;;
48789;SDS011;41718;51.980;5.734;2023-04-28T21:49:06;46.20;;;24.70;;
48789;SDS011;41718;51.980;5.734;2023-04-28T21:54:07;45.97;;;27.25;;
48789;SDS011;41718;51.980;5.734;2023-04-28T21:59:09;50.53;;;27.20;;
48789;SDS011;41718;51.980;5.734;2023-04-28T22:04:11;62.85;;;31.25;;
48789;SDS011;41718;51.980;5.734;2023-04-28T22:09:13;48.50;;;24.77;;
48789;SDS011;41718;51.980;5.734;2023-04-28T22:14:14;56.42;;;29.67;;
48789;SDS011;41718;51.980;5.734;2023-04-28T22:19:36;60.80;;;31.70;;
48789;SDS011;41718;51.980;5.734;2023-04-28T22:24:37;58.88;;;30.45;;
48789;SDS011;41718;51.980;5.734;2023-04-28T22:29:39;47.08;;;24.95;;
48789;SDS011;41718;51.980;5.734;2023-04-28T22:34:40;38.25;;;18.77;;
48789;SDS011;41718;51.980;5.734;2023-04-28T22:39:41;40.13;;;21.70;;
48789;SDS011;41718;51.980;5.734;2023-04-28T22:44:43;32.60;;;19.75;;
48789;SDS011;41718;51.980;5.734;2023-04-28T22:49:44;31.67;;;17.92;;
48789;SDS011;41718;51.980;5.734;2023-04-28T22:54:46;36.03;;;20.05;;
48789;SDS011;41718;51.980;5.734;2023-04-28T22:59:49;34.33;;;20.42;;
48789;SDS011;41718;51.980;5.734;2023-04-28T23:04:51;24.27;;;15.38;;
48789;SDS011;41718;51.980;5.734;2023-04-28T23:09:52;28.25;;;16.70;;
48789;SDS011;41718;51.980;5.734;2023-04-28T23:14:54;29.05;;;19.35;;
48789;SDS011;41718;51.980;5.734;2023-04-28T23:19:56;32.15;;;17.13;;
48789;SDS011;41718;51.980;5.734;2023-04-28T23:24:58;28.35;;;14.20;;
48789;SDS011;41718;51.980;5.734;2023-04-28T23:29:59;28.67;;;17.15;;
48789;SDS011;41718;51.980;5.734;2023-04-28T23:35:01;29.60;;;18.38;;
48789;SDS011;41718;51.980;5.734;2023-04-28T23:40:02;28.33;;;17.23;;
48789;SDS011;41718;51.980;5.734;2023-04-28T23:45:04;27.02;;;17.00;;
48789;SDS011;41718;51.980;5.734;2023-04-28T23:50:07;28.75;;;17.67;;
48789;SDS011;41718;51.980;5.734;2023-04-28T23:55:09;35.63;;;19.48;;
